createdAt,value
2022-09-25T00:02:11.160Z,7.65
2022-09-25T00:05:13.650Z,7.13
2022-09-25T00:08:17.001Z,7.93
2022-09-25T00:11:21.740Z,7.53
2022-09-25T00:14:24.264Z,8.00
2022-09-25T00:17:26.926Z,7.82
2022-09-25T00:20:28.571Z,8.13
2022-09-25T00:23:31.020Z,8.18
2022-09-25T00:26:36.337Z,8.25
2022-09-25T00:29:39.783Z,8.60
2022-09-25T00:32:42.317Z,9.85
2022-09-25T00:35:44.884Z,8.45
2022-09-25T00:38:48.930Z,10.00
2022-09-25T00:41:52.767Z,8.38
2022-09-25T00:45:01.874Z,9.45
2022-09-25T00:48:06.449Z,10.63
2022-09-25T00:51:09.212Z,10.75
2022-09-25T00:54:15.804Z,11.30
2022-09-25T00:57:21.085Z,9.88
2022-09-25T01:00:23.592Z,10.30
2022-09-25T01:03:27.362Z,10.55
2022-09-25T01:06:29.868Z,10.80
2022-09-25T01:09:32.359Z,10.43
2022-09-25T01:12:38.651Z,11.13
2022-09-25T01:15:43.975Z,11.02
2022-09-25T01:18:52.681Z,10.27
2022-09-25T01:21:56.199Z,11.55
2022-09-25T01:25:08.302Z,10.55
2022-09-25T01:28:19.177Z,10.40
2022-09-25T01:31:34.764Z,11.35
2022-09-25T01:34:39.435Z,11.70
2022-09-25T01:37:44.969Z,10.68
2022-09-25T01:40:50.443Z,10.93
2022-09-25T01:43:54.304Z,10.50
2022-09-25T01:47:01.112Z,11.15
2022-09-25T01:50:07.482Z,10.80
2022-09-25T01:53:14.531Z,11.77
2022-09-25T01:56:20.207Z,12.13
2022-09-25T01:59:27.531Z,12.05
2022-09-25T02:02:34.783Z,11.10
2022-09-25T02:05:40.747Z,10.73
2022-09-25T02:08:45.292Z,11.25
2022-09-25T02:11:49.894Z,10.73
2022-09-25T02:14:53.759Z,10.90
2022-09-25T02:18:18.201Z,10.48
2022-09-25T02:21:26.091Z,10.07
2022-09-25T02:24:32.080Z,8.95
2022-09-25T02:27:34.820Z,9.23
2022-09-25T02:30:37.502Z,9.35
2022-09-25T02:33:41.709Z,10.02
2022-09-25T02:36:44.882Z,10.10
2022-09-25T02:39:49.773Z,10.52
2022-09-25T02:42:56.103Z,9.93
2022-09-25T02:46:03.699Z,10.90
2022-09-25T02:49:10.451Z,10.13
2022-09-25T02:52:14.902Z,11.55
2022-09-25T02:55:20.636Z,10.65
2022-09-25T02:58:25.205Z,10.40
2022-09-25T03:01:29.816Z,8.68
2022-09-25T03:04:36.367Z,9.70
2022-09-25T03:07:52.927Z,9.73
2022-09-25T03:10:55.385Z,10.32
2022-09-25T03:13:58.527Z,11.05
2022-09-25T03:17:03.544Z,10.68
2022-09-25T03:20:09.912Z,10.75
2022-09-25T03:23:12.563Z,9.70
2022-09-25T03:26:15.246Z,10.00
2022-09-25T03:29:18.199Z,10.02
2022-09-25T03:32:20.612Z,10.48
2022-09-25T03:35:24.421Z,10.85
2022-09-25T03:38:26.882Z,10.30
2022-09-25T03:41:30.715Z,9.93
2022-09-25T03:44:33.148Z,9.85
2022-09-25T03:47:35.613Z,9.38
2022-09-25T03:50:40.321Z,9.95
2022-09-25T03:53:42.856Z,10.38
2022-09-25T03:56:45.570Z,10.52
2022-09-25T03:59:47.946Z,9.25
2022-09-25T04:02:50.449Z,10.25
2022-09-25T04:05:55.151Z,10.07
2022-09-25T04:08:57.547Z,10.52
2022-09-25T04:12:00.216Z,11.05
2022-09-25T04:15:02.783Z,10.13
2022-09-25T04:18:06.322Z,10.82
2022-09-25T04:21:12.164Z,10.35
2022-09-25T04:24:32.267Z,10.80
2022-09-25T04:27:34.754Z,11.52
2022-09-25T04:30:37.189Z,11.30
2022-09-25T04:33:47.803Z,10.52
2022-09-25T04:36:51.702Z,10.40
2022-09-25T04:39:54.494Z,11.70
2022-09-25T04:42:58.163Z,11.13
2022-09-25T04:46:01.672Z,11.43
2022-09-25T04:49:04.171Z,11.32
2022-09-25T04:52:07.936Z,10.80
2022-09-25T04:55:10.403Z,11.23
2022-09-25T04:58:12.981Z,11.43
2022-09-25T05:01:16.302Z,11.70
2022-09-25T05:04:20.036Z,12.57
2022-09-25T05:07:23.874Z,12.82
2022-09-25T05:10:27.868Z,11.43
2022-09-25T05:13:30.267Z,11.57
2022-09-25T05:16:32.731Z,11.50
2022-09-25T05:19:35.952Z,11.45
2022-09-25T05:22:39.707Z,11.75
2022-09-25T05:25:42.892Z,12.60
2022-09-25T05:28:45.523Z,11.65
2022-09-25T05:31:49.744Z,11.10
2022-09-25T05:34:52.203Z,11.25
2022-09-25T05:37:55.992Z,10.98
2022-09-25T05:41:02.942Z,10.65
2022-09-25T05:44:09.291Z,10.35
2022-09-25T05:47:11.819Z,9.82
2022-09-25T05:50:15.214Z,11.27
2022-09-25T05:53:19.087Z,11.32
2022-09-25T05:56:22.622Z,10.70
2022-09-25T05:59:25.029Z,10.27
2022-09-25T06:02:27.596Z,11.20
2022-09-25T06:05:30.080Z,10.80
2022-09-25T06:08:35.393Z,9.90
2022-09-25T06:11:37.801Z,10.10
2022-09-25T06:14:40.889Z,10.38
2022-09-25T06:17:43.318Z,10.68
2022-09-25T06:20:48.206Z,11.30
2022-09-25T06:23:52.011Z,10.43
2022-09-25T06:26:54.422Z,10.52
2022-09-25T06:29:56.835Z,10.80
2022-09-25T06:32:59.835Z,10.77
2022-09-25T06:36:02.444Z,9.77
2022-09-25T06:39:06.643Z,11.52
2022-09-25T06:42:09.069Z,10.60
2022-09-25T06:45:12.135Z,9.35
2022-09-25T06:48:15.760Z,8.98
2022-09-25T06:51:18.486Z,9.85
2022-09-25T06:54:22.347Z,10.02
2022-09-25T06:57:24.809Z,10.68
2022-09-25T07:00:27.487Z,10.23
2022-09-25T07:03:45.553Z,8.25
2022-09-25T07:06:48.145Z,10.18
2022-09-25T07:09:51.931Z,8.88
2022-09-25T07:12:54.396Z,9.10
2022-09-25T07:15:57.780Z,9.10
2022-09-25T07:19:00.985Z,8.63
2022-09-25T07:22:04.928Z,9.93
2022-09-25T07:25:09.755Z,9.35
2022-09-25T07:28:14.372Z,10.38
2022-09-25T07:31:17.667Z,9.68
2022-09-25T07:34:20.161Z,8.82
2022-09-25T07:37:22.539Z,10.80
2022-09-25T07:40:28.628Z,10.98
2022-09-25T07:43:31.774Z,11.10
2022-09-25T07:46:34.323Z,9.27
2022-09-25T07:49:36.770Z,9.77
2022-09-25T07:52:39.170Z,11.05
2022-09-25T07:55:43.255Z,9.00
2022-09-25T07:58:46.146Z,8.52
2022-09-25T08:01:52.881Z,10.65
2022-09-25T08:04:56.428Z,10.05
2022-09-25T08:07:58.916Z,8.82
2022-09-25T08:11:03.291Z,10.57
2022-09-25T08:14:05.833Z,10.55
2022-09-25T08:17:08.251Z,10.23
2022-09-25T08:20:11.318Z,9.45
2022-09-25T08:23:13.881Z,10.15
2022-09-25T08:26:18.095Z,8.43
2022-09-25T08:29:20.629Z,7.85
2022-09-25T08:32:23.083Z,9.05
2022-09-25T08:35:26.012Z,8.00
2022-09-25T08:38:29.105Z,9.00
2022-09-25T08:41:34.288Z,9.00
2022-09-25T08:44:37.909Z,7.63
2022-09-25T08:47:58.931Z,7.35
2022-09-25T08:51:04.162Z,8.15
2022-09-25T08:54:06.667Z,7.82
2022-09-25T08:57:15.072Z,8.52
2022-09-25T09:00:20.963Z,6.72
2022-09-25T09:03:24.265Z,7.57
2022-09-25T09:06:28.199Z,7.05
2022-09-25T09:09:32.489Z,7.28
2022-09-25T09:12:37.888Z,6.50
2022-09-25T09:15:41.746Z,7.25
2022-09-25T09:18:44.750Z,6.90
2022-09-25T09:21:49.960Z,7.50
2022-09-25T09:24:56.149Z,6.75
2022-09-25T09:28:12.274Z,6.75
2022-09-25T09:31:21.236Z,7.13
2022-09-25T09:34:53.773Z,6.95
2022-09-25T09:38:01.993Z,7.38
2022-09-25T09:41:09.569Z,6.05
2022-09-25T09:44:23.784Z,7.45
2022-09-25T09:47:39.307Z,7.05
2022-09-25T09:50:45.302Z,7.03
2022-09-25T09:53:53.286Z,7.25
2022-09-25T09:56:57.875Z,6.97
2022-09-25T10:00:05.406Z,7.10
2022-09-25T10:03:16.063Z,7.90
2022-09-25T10:06:22.524Z,7.78
2022-09-25T10:09:26.217Z,7.57
2022-09-25T10:12:35.048Z,6.95
2022-09-25T10:15:42.025Z,6.90
2022-09-25T10:18:47.745Z,6.78
2022-09-25T10:21:52.524Z,7.05
2022-09-25T10:24:58.244Z,7.70
2022-09-25T10:28:22.094Z,7.60
2022-09-25T10:31:27.762Z,6.45
2022-09-25T10:34:32.248Z,7.60
2022-09-25T10:37:37.912Z,6.85
2022-09-25T10:40:41.023Z,6.70
2022-09-25T10:43:55.134Z,6.50
2022-09-25T10:47:16.593Z,7.53
2022-09-25T10:50:20.701Z,6.50
2022-09-25T10:53:30.134Z,6.47
2022-09-25T10:56:38.036Z,6.03
2022-09-25T10:59:41.359Z,5.93
2022-09-25T11:02:46.783Z,5.72
2022-09-25T11:05:52.161Z,5.43
2022-09-25T11:09:10.205Z,5.70
2022-09-25T11:12:20.550Z,5.25
2022-09-25T11:15:25.634Z,5.53
2022-09-25T11:18:40.465Z,4.93
2022-09-25T11:21:49.711Z,4.43
2022-09-25T11:25:00.911Z,5.03
2022-09-25T11:28:09.974Z,4.35
2022-09-25T11:31:14.914Z,3.92
2022-09-25T11:34:27.842Z,3.42
2022-09-25T11:37:36.827Z,3.42
2022-09-25T11:41:07.737Z,3.47
2022-09-25T11:44:22.053Z,3.63
2022-09-25T11:47:27.716Z,4.43
2022-09-25T11:50:40.127Z,3.53
2022-09-25T11:53:46.347Z,3.83
2022-09-25T11:56:51.173Z,5.50
2022-09-25T12:00:04.317Z,5.53
2022-09-25T12:03:16.778Z,3.22
2022-09-25T12:06:30.461Z,3.05
2022-09-25T12:09:38.516Z,3.05
2022-09-25T12:12:45.652Z,2.72
2022-09-25T12:15:52.180Z,2.92
2022-09-25T12:19:10.903Z,3.65
2022-09-25T12:22:17.862Z,3.08
2022-09-25T12:25:28.466Z,2.60
2022-09-25T12:28:36.179Z,2.88
2022-09-25T12:31:45.436Z,2.85
2022-09-25T12:34:56.479Z,3.05
2022-09-25T12:38:03.651Z,3.10
2022-09-25T12:41:10.311Z,3.33
2022-09-25T12:44:17.144Z,2.92
2022-09-25T12:47:23.941Z,3.50
2022-09-25T12:50:29.166Z,3.00
2022-09-25T12:53:38.600Z,2.95
2022-09-25T12:56:44.030Z,2.55
2022-09-25T12:59:52.372Z,2.05
2022-09-25T13:02:57.295Z,2.28
2022-09-25T13:06:04.607Z,2.28
2022-09-25T13:09:19.120Z,2.03
2022-09-25T13:12:26.408Z,2.10
2022-09-25T13:15:30.517Z,1.65
2022-09-25T13:18:34.309Z,1.15
2022-09-25T13:21:37.575Z,1.65
2022-09-25T13:24:44.737Z,1.52
2022-09-25T13:27:47.567Z,1.75
2022-09-25T13:31:08.921Z,1.70
2022-09-25T13:34:13.555Z,1.45
2022-09-25T13:37:16.678Z,1.05
2022-09-25T13:40:40.765Z,3.28
2022-09-25T13:43:44.134Z,1.40
2022-09-25T13:46:47.843Z,1.98
2022-09-25T13:49:51.334Z,2.90
2022-09-25T13:53:16.096Z,1.55
2022-09-25T13:56:26.554Z,1.33
2022-09-25T13:59:37.086Z,1.30
2022-09-25T14:02:43.259Z,1.70
2022-09-25T14:05:45.769Z,1.50
2022-09-25T14:08:48.925Z,1.70
2022-09-25T14:11:56.670Z,1.38
2022-09-25T14:15:02.007Z,1.45
2022-09-25T14:18:10.075Z,1.00
2022-09-25T14:21:15.556Z,1.00
2022-09-25T14:24:21.023Z,1.58
2022-09-25T14:27:27.788Z,1.10
2022-09-25T14:30:31.368Z,1.30
2022-09-25T14:33:45.362Z,1.30
2022-09-25T14:36:53.650Z,1.67
2022-09-25T14:40:02.223Z,1.73
2022-09-25T14:43:15.790Z,1.40
2022-09-25T14:46:19.766Z,1.45
2022-09-25T14:49:24.607Z,1.15
2022-09-25T14:52:28.368Z,1.50
2022-09-25T14:55:35.409Z,1.27
2022-09-25T14:58:40.816Z,1.42
2022-09-25T15:01:46.443Z,1.20
2022-09-25T15:04:49.511Z,1.48
2022-09-25T15:07:52.796Z,1.63
2022-09-25T15:11:02.559Z,1.65
2022-09-25T15:14:13.117Z,1.90
2022-09-25T15:17:24.682Z,1.42
2022-09-25T15:20:39.961Z,1.83
2022-09-25T15:23:48.799Z,3.83
2022-09-25T15:26:52.101Z,2.22
2022-09-25T15:29:56.638Z,1.77
2022-09-25T15:33:01.099Z,1.15
2022-09-25T15:36:11.261Z,1.35
2022-09-25T15:39:14.935Z,1.33
2022-09-25T15:42:17.408Z,1.23
2022-09-25T15:45:39.925Z,1.63
2022-09-25T15:48:45.308Z,1.23
2022-09-25T15:51:52.938Z,1.20
2022-09-25T15:55:00.138Z,1.38
2022-09-25T15:58:07.943Z,1.23
2022-09-25T16:01:30.898Z,1.30
2022-09-25T16:04:56.636Z,1.40
2022-09-25T16:08:14.971Z,1.23
2022-09-25T16:11:21.683Z,1.38
2022-09-25T16:14:29.128Z,0.90
2022-09-25T16:17:33.892Z,1.30
2022-09-25T16:20:37.283Z,1.60
2022-09-25T16:23:41.297Z,1.27
2022-09-25T16:26:45.187Z,1.27
2022-09-25T16:29:47.653Z,1.13
2022-09-25T16:32:52.999Z,1.30
2022-09-25T16:36:13.096Z,1.52
2022-09-25T16:39:28.862Z,1.10
2022-09-25T16:42:37.888Z,1.08
2022-09-25T16:46:00.170Z,1.00
2022-09-25T16:49:04.805Z,1.05
2022-09-25T16:52:08.283Z,0.98
2022-09-25T16:55:16.449Z,1.02
2022-09-25T16:58:19.251Z,1.20
2022-09-25T17:01:22.528Z,0.90
2022-09-25T17:04:36.535Z,1.10
2022-09-25T17:07:39.224Z,0.88
2022-09-25T17:10:42.413Z,0.82
2022-09-25T17:13:45.878Z,1.20
2022-09-25T17:16:48.734Z,1.05
2022-09-25T17:19:52.739Z,0.70
2022-09-25T17:22:55.483Z,0.90
2022-09-25T17:26:01.008Z,0.90
2022-09-25T17:29:04.215Z,0.95
2022-09-25T17:32:08.755Z,0.70
2022-09-25T17:35:26.204Z,0.90
2022-09-25T17:38:28.662Z,1.05
2022-09-25T17:41:32.438Z,0.90
2022-09-25T17:44:35.065Z,1.30
2022-09-25T17:47:37.521Z,0.80
2022-09-25T17:50:41.419Z,1.00
2022-09-25T17:53:46.162Z,1.15
2022-09-25T17:56:49.775Z,5.72
2022-09-25T17:59:52.198Z,4.82
2022-09-25T18:02:54.736Z,2.33
2022-09-25T18:05:58.633Z,1.27
2022-09-25T18:09:01.362Z,2.00
2022-09-25T18:12:04.095Z,2.70
2022-09-25T18:15:07.952Z,3.50
2022-09-25T18:18:10.811Z,3.42
2022-09-25T18:21:32.033Z,3.28
2022-09-25T18:24:34.495Z,2.42
2022-09-25T18:27:41.509Z,2.10
2022-09-25T18:30:44.245Z,1.33
2022-09-25T18:33:47.866Z,0.98
2022-09-25T18:36:54.289Z,1.60
2022-09-25T18:39:56.806Z,1.10
2022-09-25T18:43:01.528Z,0.80
2022-09-25T18:46:04.553Z,0.93
2022-09-25T18:49:07.217Z,1.15
2022-09-25T18:52:11.400Z,0.73
2022-09-25T18:55:13.829Z,1.20
2022-09-25T18:58:16.244Z,0.93
2022-09-25T19:01:18.924Z,1.13
2022-09-25T19:04:21.645Z,1.00
2022-09-25T19:07:25.929Z,1.02
2022-09-25T19:10:30.199Z,1.00
2022-09-25T19:13:33.741Z,1.00
2022-09-25T19:16:38.504Z,0.90
2022-09-25T19:19:41.908Z,1.17
2022-09-25T19:22:45.753Z,1.05
2022-09-25T19:25:54.814Z,0.80
2022-09-25T19:28:57.367Z,1.08
2022-09-25T19:31:59.790Z,1.08
2022-09-25T19:35:02.183Z,1.27
2022-09-25T19:38:11.823Z,0.68
2022-09-25T19:41:15.921Z,0.77
2022-09-25T19:44:18.785Z,1.08
2022-09-25T19:47:21.238Z,1.20
2022-09-25T19:50:23.644Z,1.27
2022-09-25T19:53:27.518Z,1.42
2022-09-25T19:56:30.783Z,1.73
2022-09-25T19:59:33.270Z,1.67
2022-09-25T20:02:35.822Z,2.20
2022-09-25T20:05:39.100Z,2.95
2022-09-25T20:08:43.001Z,2.67
2022-09-25T20:11:45.701Z,3.15
2022-09-25T20:14:48.708Z,3.58
2022-09-25T20:17:51.142Z,3.53
2022-09-25T20:20:53.625Z,3.80
2022-09-25T20:23:58.171Z,3.90
2022-09-25T20:27:01.865Z,4.05
2022-09-25T20:30:05.704Z,4.15
2022-09-25T20:33:08.197Z,4.82
2022-09-25T20:36:12.162Z,4.55
2022-09-25T20:39:20.901Z,3.92
2022-09-25T20:42:23.701Z,3.25
2022-09-25T20:45:26.087Z,3.00
2022-09-25T20:48:28.644Z,2.50
2022-09-25T20:51:32.129Z,2.20
2022-09-25T20:54:35.893Z,2.47
2022-09-25T20:57:38.311Z,1.67
2022-09-25T21:00:40.676Z,1.95
2022-09-25T21:03:44.201Z,2.40
2022-09-25T21:06:46.674Z,2.45
2022-09-25T21:09:51.534Z,1.70
2022-09-25T21:12:54.028Z,2.22
2022-09-25T21:16:03.138Z,2.40
2022-09-25T21:19:05.591Z,1.95
2022-09-25T21:22:07.975Z,2.65
2022-09-25T21:25:11.865Z,2.20
2022-09-25T21:28:14.363Z,2.00
2022-09-25T21:31:17.483Z,2.17
2022-09-25T21:34:20.296Z,2.08
2022-09-25T21:37:22.689Z,2.83
2022-09-25T21:40:27.533Z,1.85
2022-09-25T21:43:31.379Z,2.28
2022-09-25T21:46:34.493Z,2.50
2022-09-25T21:49:38.376Z,2.80
2022-09-25T21:52:41.080Z,1.98
2022-09-25T21:55:44.893Z,2.30
2022-09-25T21:58:47.702Z,2.72
2022-09-25T22:01:50.414Z,2.67
2022-09-25T22:04:52.932Z,2.70
2022-09-25T22:07:55.415Z,2.78
2022-09-25T22:10:59.985Z,2.40
2022-09-25T22:14:02.445Z,1.77
2022-09-25T22:17:04.935Z,1.85
2022-09-25T22:20:08.517Z,2.17
2022-09-25T22:23:10.917Z,2.03
2022-09-25T22:26:15.391Z,1.98
2022-09-25T22:29:18.156Z,1.95
2022-09-25T22:32:20.563Z,2.10
2022-09-25T22:35:22.966Z,1.90
2022-09-25T22:38:25.339Z,1.88
2022-09-25T22:41:29.107Z,2.03
2022-09-25T22:44:32.561Z,2.10
2022-09-25T22:47:34.939Z,1.88
2022-09-25T22:50:37.476Z,1.70
2022-09-25T22:53:40.206Z,1.63
2022-09-25T22:56:44.267Z,1.45
2022-09-25T22:59:47.005Z,1.77
2022-09-25T23:02:49.487Z,1.48
2022-09-25T23:05:51.964Z,1.45
2022-09-25T23:08:54.463Z,1.75
2022-09-25T23:11:58.433Z,1.35
2022-09-25T23:15:00.912Z,1.75
2022-09-25T23:18:03.323Z,1.45
2022-09-25T23:21:05.915Z,1.73
2022-09-25T23:24:11.345Z,1.40
2022-09-25T23:27:15.193Z,1.60
2022-09-25T23:30:18.000Z,1.20
2022-09-25T23:33:20.493Z,1.20
2022-09-25T23:36:24.597Z,1.55
2022-09-25T23:39:27.094Z,1.20
2022-09-25T23:42:30.864Z,1.15
2022-09-25T23:45:33.463Z,1.23
2022-09-25T23:48:36.357Z,1.23
2022-09-25T23:51:38.946Z,1.52
2022-09-25T23:54:41.350Z,1.42
2022-09-25T23:57:45.127Z,1.05
